sensor_id;sensor_type;location;lat;lon;timestamp;P1;durP1;ratioP1;P2;durP2;ratioP2
20393;SDS011;10356;50.544;9.642;2023-03-14T00:00:37;1.63;;;0.60;;
20393;SDS011;10356;50.544;9.642;2023-03-14T00:03:04;0.67;;;0.47;;
20393;SDS011;10356;50.544;9.642;2023-03-14T00:05:30;1.03;;;0.40;;
20393;SDS011;10356;50.544;9.642;2023-03-14T00:07:57;2.60;;;0.43;;
20393;SDS011;10356;50.544;9.642;2023-03-14T00:10:25;0.90;;;0.40;;
20393;SDS011;10356;50.544;9.642;2023-03-14T00:12:52;1.47;;;0.50;;
20393;SDS011;10356;50.544;9.642;2023-03-14T00:15:19;1.30;;;0.50;;
20393;SDS011;10356;50.544;9.642;2023-03-14T00:17:45;1.70;;;0.63;;
20393;SDS011;10356;50.544;9.642;2023-03-14T00:20:13;0.90;;;0.53;;
20393;SDS011;10356;50.544;9.642;2023-03-14T00:22:40;1.00;;;0.80;;
20393;SDS011;10356;50.544;9.642;2023-03-14T00:25:08;1.27;;;0.70;;
20393;SDS011;10356;50.544;9.642;2023-03-14T00:27:37;2.80;;;0.70;;
20393;SDS011;10356;50.544;9.642;2023-03-14T00:30:04;2.23;;;0.57;;
20393;SDS011;10356;50.544;9.642;2023-03-14T00:32:32;1.70;;;0.93;;
20393;SDS011;10356;50.544;9.642;2023-03-14T00:34:59;0.80;;;0.50;;
20393;SDS011;10356;50.544;9.642;2023-03-14T00:37:26;1.67;;;0.70;;
20393;SDS011;10356;50.544;9.642;2023-03-14T00:39:52;1.83;;;0.83;;
20393;SDS011;10356;50.544;9.642;2023-03-14T00:42:19;1.33;;;0.67;;
20393;SDS011;10356;50.544;9.642;2023-03-14T00:44:47;1.53;;;0.80;;
20393;SDS011;10356;50.544;9.642;2023-03-14T00:47:13;2.60;;;0.60;;
20393;SDS011;10356;50.544;9.642;2023-03-14T00:49:40;2.00;;;0.70;;
20393;SDS011;10356;50.544;9.642;2023-03-14T00:52:08;2.40;;;0.77;;
20393;SDS011;10356;50.544;9.642;2023-03-14T00:54:35;3.37;;;1.00;;
20393;SDS011;10356;50.544;9.642;2023-03-14T00:57:01;2.93;;;0.70;;
20393;SDS011;10356;50.544;9.642;2023-03-14T00:59:28;2.60;;;0.87;;
20393;SDS011;10356;50.544;9.642;2023-03-14T01:01:56;2.67;;;0.80;;
20393;SDS011;10356;50.544;9.642;2023-03-14T01:04:22;1.73;;;1.00;;
20393;SDS011;10356;50.544;9.642;2023-03-14T01:06:49;2.67;;;1.00;;
20393;SDS011;10356;50.544;9.642;2023-03-14T01:09:15;3.20;;;0.90;;
20393;SDS011;10356;50.544;9.642;2023-03-14T01:11:43;3.60;;;1.50;;
20393;SDS011;10356;50.544;9.642;2023-03-14T01:14:11;1.90;;;0.90;;
20393;SDS011;10356;50.544;9.642;2023-03-14T01:16:38;3.97;;;1.80;;
20393;SDS011;10356;50.544;9.642;2023-03-14T01:19:06;6.13;;;3.10;;
20393;SDS011;10356;50.544;9.642;2023-03-14T01:21:34;7.83;;;3.90;;
20393;SDS011;10356;50.544;9.642;2023-03-14T01:24:01;3.03;;;0.97;;
20393;SDS011;10356;50.544;9.642;2023-03-14T01:26:30;3.40;;;1.10;;
20393;SDS011;10356;50.544;9.642;2023-03-14T01:28:57;3.13;;;1.33;;
20393;SDS011;10356;50.544;9.642;2023-03-14T01:31:24;2.40;;;1.30;;
20393;SDS011;10356;50.544;9.642;2023-03-14T01:33:52;3.80;;;1.20;;
20393;SDS011;10356;50.544;9.642;2023-03-14T01:36:20;3.27;;;1.20;;
20393;SDS011;10356;50.544;9.642;2023-03-14T01:38:47;1.93;;;0.93;;
20393;SDS011;10356;50.544;9.642;2023-03-14T01:41:14;2.40;;;1.10;;
20393;SDS011;10356;50.544;9.642;2023-03-14T01:43:43;3.80;;;1.13;;
20393;SDS011;10356;50.544;9.642;2023-03-14T01:46:17;6.10;;;1.50;;
20393;SDS011;10356;50.544;9.642;2023-03-14T01:49:02;2.83;;;1.20;;
20393;SDS011;10356;50.544;9.642;2023-03-14T01:51:35;4.77;;;1.10;;
20393;SDS011;10356;50.544;9.642;2023-03-14T01:54:10;6.97;;;1.70;;
20393;SDS011;10356;50.544;9.642;2023-03-14T01:56:41;8.03;;;1.23;;
20393;SDS011;10356;50.544;9.642;2023-03-14T01:59:11;4.37;;;1.23;;
20393;SDS011;10356;50.544;9.642;2023-03-14T02:01:38;5.53;;;1.10;;
20393;SDS011;10356;50.544;9.642;2023-03-14T02:04:08;4.67;;;1.27;;
20393;SDS011;10356;50.544;9.642;2023-03-14T02:06:40;4.00;;;0.97;;
20393;SDS011;10356;50.544;9.642;2023-03-14T02:09:13;4.20;;;1.30;;
20393;SDS011;10356;50.544;9.642;2023-03-14T02:11:40;6.17;;;1.20;;
20393;SDS011;10356;50.544;9.642;2023-03-14T02:14:07;6.37;;;1.47;;
20393;SDS011;10356;50.544;9.642;2023-03-14T02:16:40;5.57;;;1.27;;
20393;SDS011;10356;50.544;9.642;2023-03-14T02:19:06;3.63;;;1.20;;
20393;SDS011;10356;50.544;9.642;2023-03-14T02:21:41;5.17;;;1.10;;
20393;SDS011;10356;50.544;9.642;2023-03-14T02:24:15;6.53;;;1.23;;
20393;SDS011;10356;50.544;9.642;2023-03-14T02:29:30;3.70;;;1.10;;
20393;SDS011;10356;50.544;9.642;2023-03-14T02:31:59;6.30;;;1.10;;
20393;SDS011;10356;50.544;9.642;2023-03-14T02:34:26;7.33;;;1.43;;
20393;SDS011;10356;50.544;9.642;2023-03-14T02:36:52;6.63;;;1.30;;
20393;SDS011;10356;50.544;9.642;2023-03-14T02:39:21;5.53;;;1.10;;
20393;SDS011;10356;50.544;9.642;2023-03-14T02:41:52;5.20;;;1.30;;
20393;SDS011;10356;50.544;9.642;2023-03-14T02:44:20;5.57;;;1.53;;
20393;SDS011;10356;50.544;9.642;2023-03-14T02:46:46;6.60;;;1.40;;
20393;SDS011;10356;50.544;9.642;2023-03-14T02:49:13;3.33;;;1.00;;
20393;SDS011;10356;50.544;9.642;2023-03-14T02:51:40;3.53;;;1.20;;
20393;SDS011;10356;50.544;9.642;2023-03-14T02:54:09;4.87;;;1.00;;
20393;SDS011;10356;50.544;9.642;2023-03-14T02:56:35;6.83;;;1.20;;
20393;SDS011;10356;50.544;9.642;2023-03-14T02:59:03;6.63;;;1.27;;
20393;SDS011;10356;50.544;9.642;2023-03-14T03:01:31;2.80;;;1.17;;
20393;SDS011;10356;50.544;9.642;2023-03-14T03:03:58;5.90;;;1.30;;
20393;SDS011;10356;50.544;9.642;2023-03-14T03:06:25;6.37;;;1.00;;
20393;SDS011;10356;50.544;9.642;2023-03-14T03:08:51;5.60;;;1.17;;
20393;SDS011;10356;50.544;9.642;2023-03-14T03:11:18;5.47;;;0.87;;
20393;SDS011;10356;50.544;9.642;2023-03-14T03:13:45;6.53;;;1.23;;
20393;SDS011;10356;50.544;9.642;2023-03-14T03:16:12;4.67;;;1.30;;
20393;SDS011;10356;50.544;9.642;2023-03-14T03:18:41;5.40;;;1.10;;
20393;SDS011;10356;50.544;9.642;2023-03-14T03:21:08;3.30;;;1.20;;
20393;SDS011;10356;50.544;9.642;2023-03-14T03:23:34;4.57;;;1.10;;
20393;SDS011;10356;50.544;9.642;2023-03-14T03:26:01;7.37;;;1.23;;
20393;SDS011;10356;50.544;9.642;2023-03-14T03:28:28;2.37;;;0.80;;
20393;SDS011;10356;50.544;9.642;2023-03-14T03:30:55;6.30;;;1.47;;
20393;SDS011;10356;50.544;9.642;2023-03-14T03:33:21;11.33;;;1.53;;
20393;SDS011;10356;50.544;9.642;2023-03-14T03:35:51;5.93;;;1.10;;
20393;SDS011;10356;50.544;9.642;2023-03-14T03:38:17;2.60;;;0.90;;
20393;SDS011;10356;50.544;9.642;2023-03-14T03:40:45;4.67;;;1.13;;
20393;SDS011;10356;50.544;9.642;2023-03-14T03:43:11;6.50;;;1.33;;
20393;SDS011;10356;50.544;9.642;2023-03-14T03:45:38;7.07;;;1.10;;
20393;SDS011;10356;50.544;9.642;2023-03-14T03:48:05;5.90;;;0.90;;
20393;SDS011;10356;50.544;9.642;2023-03-14T03:50:32;3.90;;;1.20;;
20393;SDS011;10356;50.544;9.642;2023-03-14T03:53:00;8.17;;;1.10;;
20393;SDS011;10356;50.544;9.642;2023-03-14T03:55:26;3.17;;;1.10;;
20393;SDS011;10356;50.544;9.642;2023-03-14T03:57:54;5.73;;;1.10;;
20393;SDS011;10356;50.544;9.642;2023-03-14T04:00:20;5.93;;;1.93;;
20393;SDS011;10356;50.544;9.642;2023-03-14T04:02:47;4.93;;;1.20;;
20393;SDS011;10356;50.544;9.642;2023-03-14T04:05:14;4.77;;;1.20;;
20393;SDS011;10356;50.544;9.642;2023-03-14T04:07:40;4.50;;;1.50;;
20393;SDS011;10356;50.544;9.642;2023-03-14T04:10:09;5.87;;;1.10;;
20393;SDS011;10356;50.544;9.642;2023-03-14T04:12:36;9.70;;;1.50;;
20393;SDS011;10356;50.544;9.642;2023-03-14T04:15:02;5.50;;;1.40;;
20393;SDS011;10356;50.544;9.642;2023-03-14T04:17:29;5.57;;;1.20;;
20393;SDS011;10356;50.544;9.642;2023-03-14T04:19:56;6.23;;;1.20;;
20393;SDS011;10356;50.544;9.642;2023-03-14T04:22:22;7.13;;;1.53;;
20393;SDS011;10356;50.544;9.642;2023-03-14T04:24:49;2.33;;;1.10;;
20393;SDS011;10356;50.544;9.642;2023-03-14T04:27:17;6.30;;;1.10;;
20393;SDS011;10356;50.544;9.642;2023-03-14T04:29:43;2.13;;;1.00;;
20393;SDS011;10356;50.544;9.642;2023-03-14T04:32:10;5.00;;;1.30;;
20393;SDS011;10356;50.544;9.642;2023-03-14T04:34:36;7.50;;;2.13;;
20393;SDS011;10356;50.544;9.642;2023-03-14T04:37:03;5.37;;;1.10;;
20393;SDS011;10356;50.544;9.642;2023-03-14T04:39:30;2.50;;;0.93;;
20393;SDS011;10356;50.544;9.642;2023-03-14T04:41:56;5.33;;;1.30;;
20393;SDS011;10356;50.544;9.642;2023-03-14T04:44:24;3.50;;;1.07;;
20393;SDS011;10356;50.544;9.642;2023-03-14T04:46:50;5.77;;;1.00;;
20393;SDS011;10356;50.544;9.642;2023-03-14T04:49:17;5.67;;;0.93;;
20393;SDS011;10356;50.544;9.642;2023-03-14T04:51:44;2.37;;;0.80;;
20393;SDS011;10356;50.544;9.642;2023-03-14T04:54:10;4.07;;;1.00;;
20393;SDS011;10356;50.544;9.642;2023-03-14T04:56:37;3.80;;;1.20;;
20393;SDS011;10356;50.544;9.642;2023-03-14T04:59:03;5.10;;;1.20;;
20393;SDS011;10356;50.544;9.642;2023-03-14T05:01:31;2.03;;;0.77;;
20393;SDS011;10356;50.544;9.642;2023-03-14T05:03:58;4.20;;;1.00;;
20393;SDS011;10356;50.544;9.642;2023-03-14T05:06:24;3.73;;;1.00;;
20393;SDS011;10356;50.544;9.642;2023-03-14T05:08:51;4.03;;;1.00;;
20393;SDS011;10356;50.544;9.642;2023-03-14T05:11:17;4.50;;;1.23;;
20393;SDS011;10356;50.544;9.642;2023-03-14T05:13:44;5.63;;;1.20;;
20393;SDS011;10356;50.544;9.642;2023-03-14T05:16:11;2.47;;;0.90;;
20393;SDS011;10356;50.544;9.642;2023-03-14T05:18:39;3.87;;;0.93;;
20393;SDS011;10356;50.544;9.642;2023-03-14T05:21:05;3.50;;;0.87;;
20393;SDS011;10356;50.544;9.642;2023-03-14T05:23:32;5.07;;;1.03;;
20393;SDS011;10356;50.544;9.642;2023-03-14T05:25:58;7.07;;;1.30;;
20393;SDS011;10356;50.544;9.642;2023-03-14T05:28:25;6.40;;;1.37;;
20393;SDS011;10356;50.544;9.642;2023-03-14T05:30:52;3.17;;;1.00;;
20393;SDS011;10356;50.544;9.642;2023-03-14T05:33:19;3.97;;;0.90;;
20393;SDS011;10356;50.544;9.642;2023-03-14T05:35:47;6.20;;;1.20;;
20393;SDS011;10356;50.544;9.642;2023-03-14T05:38:13;4.50;;;1.40;;
20393;SDS011;10356;50.544;9.642;2023-03-14T05:40:40;4.37;;;1.13;;
20393;SDS011;10356;50.544;9.642;2023-03-14T05:43:06;4.50;;;1.07;;
20393;SDS011;10356;50.544;9.642;2023-03-14T05:45:33;4.23;;;1.10;;
20393;SDS011;10356;50.544;9.642;2023-03-14T05:48:01;4.67;;;0.93;;
20393;SDS011;10356;50.544;9.642;2023-03-14T05:50:28;5.70;;;1.20;;
20393;SDS011;10356;50.544;9.642;2023-03-14T05:52:56;3.37;;;1.20;;
20393;SDS011;10356;50.544;9.642;2023-03-14T05:55:23;8.83;;;1.17;;
20393;SDS011;10356;50.544;9.642;2023-03-14T05:57:50;2.00;;;0.90;;
20393;SDS011;10356;50.544;9.642;2023-03-14T06:00:16;4.13;;;0.97;;
20393;SDS011;10356;50.544;9.642;2023-03-14T06:02:43;4.10;;;1.07;;
20393;SDS011;10356;50.544;9.642;2023-03-14T06:05:10;3.17;;;0.80;;
20393;SDS011;10356;50.544;9.642;2023-03-14T06:07:37;3.87;;;1.03;;
20393;SDS011;10356;50.544;9.642;2023-03-14T06:10:05;5.57;;;1.00;;
20393;SDS011;10356;50.544;9.642;2023-03-14T06:12:33;3.37;;;0.97;;
20393;SDS011;10356;50.544;9.642;2023-03-14T06:14:59;2.40;;;0.87;;
20393;SDS011;10356;50.544;9.642;2023-03-14T06:17:26;8.57;;;1.23;;
20393;SDS011;10356;50.544;9.642;2023-03-14T06:19:53;3.83;;;0.80;;
20393;SDS011;10356;50.544;9.642;2023-03-14T06:22:19;3.47;;;0.80;;
20393;SDS011;10356;50.544;9.642;2023-03-14T06:24:45;4.33;;;0.80;;
20393;SDS011;10356;50.544;9.642;2023-03-14T06:27:13;4.33;;;0.90;;
20393;SDS011;10356;50.544;9.642;2023-03-14T06:29:40;4.07;;;0.70;;
20393;SDS011;10356;50.544;9.642;2023-03-14T06:32:06;4.57;;;0.73;;
20393;SDS011;10356;50.544;9.642;2023-03-14T06:34:33;2.27;;;0.73;;
20393;SDS011;10356;50.544;9.642;2023-03-14T06:37:00;5.20;;;0.70;;
20393;SDS011;10356;50.544;9.642;2023-03-14T06:39:27;0.90;;;0.53;;
20393;SDS011;10356;50.544;9.642;2023-03-14T06:41:53;3.57;;;1.00;;
20393;SDS011;10356;50.544;9.642;2023-03-14T06:44:21;3.30;;;0.80;;
20393;SDS011;10356;50.544;9.642;2023-03-14T06:46:48;3.90;;;0.70;;
20393;SDS011;10356;50.544;9.642;2023-03-14T06:49:14;3.90;;;0.80;;
20393;SDS011;10356;50.544;9.642;2023-03-14T06:51:41;2.47;;;0.80;;
20393;SDS011;10356;50.544;9.642;2023-03-14T06:54:07;3.80;;;0.80;;
20393;SDS011;10356;50.544;9.642;2023-03-14T06:56:34;5.63;;;0.60;;
20393;SDS011;10356;50.544;9.642;2023-03-14T06:59:00;5.03;;;0.73;;
20393;SDS011;10356;50.544;9.642;2023-03-14T07:01:28;3.70;;;0.73;;
20393;SDS011;10356;50.544;9.642;2023-03-14T07:03:57;3.10;;;1.40;;
20393;SDS011;10356;50.544;9.642;2023-03-14T07:06:24;2.43;;;0.90;;
20393;SDS011;10356;50.544;9.642;2023-03-14T07:08:51;4.07;;;0.90;;
20393;SDS011;10356;50.544;9.642;2023-03-14T07:11:17;4.87;;;0.87;;
20393;SDS011;10356;50.544;9.642;2023-03-14T07:13:44;1.77;;;0.60;;
20393;SDS011;10356;50.544;9.642;2023-03-14T07:16:11;2.40;;;0.60;;
20393;SDS011;10356;50.544;9.642;2023-03-14T07:18:41;3.50;;;0.60;;
20393;SDS011;10356;50.544;9.642;2023-03-14T07:21:08;2.77;;;0.70;;
20393;SDS011;10356;50.544;9.642;2023-03-14T07:23:35;3.57;;;0.80;;
20393;SDS011;10356;50.544;9.642;2023-03-14T07:26:01;3.20;;;0.70;;
20393;SDS011;10356;50.544;9.642;2023-03-14T07:28:28;2.70;;;0.70;;
20393;SDS011;10356;50.544;9.642;2023-03-14T07:30:54;3.03;;;0.63;;
20393;SDS011;10356;50.544;9.642;2023-03-14T07:33:21;3.53;;;1.00;;
20393;SDS011;10356;50.544;9.642;2023-03-14T07:35:49;3.47;;;0.70;;
20393;SDS011;10356;50.544;9.642;2023-03-14T07:38:16;2.47;;;0.50;;
20393;SDS011;10356;50.544;9.642;2023-03-14T07:40:43;1.20;;;0.30;;
20393;SDS011;10356;50.544;9.642;2023-03-14T07:43:09;1.77;;;0.60;;
20393;SDS011;10356;50.544;9.642;2023-03-14T07:45:36;1.80;;;0.60;;
20393;SDS011;10356;50.544;9.642;2023-03-14T07:48:02;2.17;;;0.50;;
20393;SDS011;10356;50.544;9.642;2023-03-14T07:50:29;1.30;;;0.70;;
20393;SDS011;10356;50.544;9.642;2023-03-14T07:52:57;1.83;;;0.53;;
20393;SDS011;10356;50.544;9.642;2023-03-14T07:55:24;1.17;;;0.43;;
20393;SDS011;10356;50.544;9.642;2023-03-14T07:57:50;3.13;;;0.60;;
20393;SDS011;10356;50.544;9.642;2023-03-14T08:00:17;2.17;;;0.50;;
20393;SDS011;10356;50.544;9.642;2023-03-14T08:02:44;1.33;;;0.50;;
20393;SDS011;10356;50.544;9.642;2023-03-14T08:05:10;1.27;;;0.50;;
20393;SDS011;10356;50.544;9.642;2023-03-14T08:07:37;1.50;;;0.70;;
20393;SDS011;10356;50.544;9.642;2023-03-14T08:10:06;2.07;;;0.50;;
20393;SDS011;10356;50.544;9.642;2023-03-14T08:12:33;1.43;;;0.70;;
20393;SDS011;10356;50.544;9.642;2023-03-14T08:15:00;1.93;;;0.97;;
20393;SDS011;10356;50.544;9.642;2023-03-14T08:17:30;2.97;;;0.87;;
20393;SDS011;10356;50.544;9.642;2023-03-14T08:19:56;2.27;;;1.00;;
20393;SDS011;10356;50.544;9.642;2023-03-14T08:22:23;2.10;;;0.83;;
20393;SDS011;10356;50.544;9.642;2023-03-14T08:24:49;2.60;;;0.63;;
20393;SDS011;10356;50.544;9.642;2023-03-14T08:27:17;1.52;;;0.63;;
20393;SDS011;10356;50.544;9.642;2023-03-14T08:29:44;1.37;;;0.50;;
20393;SDS011;10356;50.544;9.642;2023-03-14T08:32:10;2.93;;;0.40;;
20393;SDS011;10356;50.544;9.642;2023-03-14T08:34:37;2.17;;;0.47;;
20393;SDS011;10356;50.544;9.642;2023-03-14T08:37:04;0.77;;;0.40;;
20393;SDS011;10356;50.544;9.642;2023-03-14T08:39:31;1.80;;;0.60;;
20393;SDS011;10356;50.544;9.642;2023-03-14T08:41:57;3.43;;;0.60;;
20393;SDS011;10356;50.544;9.642;2023-03-14T08:44:25;4.38;;;1.08;;
20393;SDS011;10356;50.544;9.642;2023-03-14T08:46:52;1.85;;;0.50;;
20393;SDS011;10356;50.544;9.642;2023-03-14T08:49:18;2.30;;;0.50;;
20393;SDS011;10356;50.544;9.642;2023-03-14T08:51:45;1.27;;;0.43;;
20393;SDS011;10356;50.544;9.642;2023-03-14T08:54:14;1.98;;;0.60;;
20393;SDS011;10356;50.544;9.642;2023-03-14T08:56:41;1.67;;;0.50;;
20393;SDS011;10356;50.544;9.642;2023-03-14T08:59:08;1.50;;;0.50;;
20393;SDS011;10356;50.544;9.642;2023-03-14T09:01:37;1.40;;;0.47;;
20393;SDS011;10356;50.544;9.642;2023-03-14T09:04:03;0.97;;;0.50;;
20393;SDS011;10356;50.544;9.642;2023-03-14T09:06:30;0.53;;;0.40;;
20393;SDS011;10356;50.544;9.642;2023-03-14T09:08:57;1.87;;;0.67;;
20393;SDS011;10356;50.544;9.642;2023-03-14T09:11:23;0.70;;;0.50;;
20393;SDS011;10356;50.544;9.642;2023-03-14T09:13:50;3.07;;;0.70;;
20393;SDS011;10356;50.544;9.642;2023-03-14T09:16:16;1.53;;;0.47;;
20393;SDS011;10356;50.544;9.642;2023-03-14T09:18:44;1.70;;;0.50;;
20393;SDS011;10356;50.544;9.642;2023-03-14T09:21:10;1.77;;;0.63;;
20393;SDS011;10356;50.544;9.642;2023-03-14T09:23:37;2.53;;;0.87;;
20393;SDS011;10356;50.544;9.642;2023-03-14T09:26:05;2.93;;;0.80;;
20393;SDS011;10356;50.544;9.642;2023-03-14T09:28:32;2.40;;;0.77;;
20393;SDS011;10356;50.544;9.642;2023-03-14T09:31:04;2.23;;;0.50;;
20393;SDS011;10356;50.544;9.642;2023-03-14T09:33:32;1.90;;;0.60;;
20393;SDS011;10356;50.544;9.642;2023-03-14T09:36:00;3.03;;;0.57;;
20393;SDS011;10356;50.544;9.642;2023-03-14T09:38:27;1.63;;;0.70;;
20393;SDS011;10356;50.544;9.642;2023-03-14T09:40:54;2.37;;;0.70;;
20393;SDS011;10356;50.544;9.642;2023-03-14T09:43:23;4.17;;;0.80;;
20393;SDS011;10356;50.544;9.642;2023-03-14T09:45:52;5.07;;;0.90;;
20393;SDS011;10356;50.544;9.642;2023-03-14T09:48:20;1.37;;;0.73;;
20393;SDS011;10356;50.544;9.642;2023-03-14T09:50:50;1.93;;;0.80;;
20393;SDS011;10356;50.544;9.642;2023-03-14T09:53:21;1.90;;;0.80;;
20393;SDS011;10356;50.544;9.642;2023-03-14T09:55:52;2.87;;;0.70;;
20393;SDS011;10356;50.544;9.642;2023-03-14T09:58:21;2.63;;;0.80;;
20393;SDS011;10356;50.544;9.642;2023-03-14T10:00:50;1.90;;;0.70;;
20393;SDS011;10356;50.544;9.642;2023-03-14T10:03:21;2.67;;;0.70;;
20393;SDS011;10356;50.544;9.642;2023-03-14T10:05:51;3.40;;;0.80;;
20393;SDS011;10356;50.544;9.642;2023-03-14T10:08:18;1.73;;;0.83;;
20393;SDS011;10356;50.544;9.642;2023-03-14T10:10:48;1.67;;;0.80;;
20393;SDS011;10356;50.544;9.642;2023-03-14T10:13:16;1.27;;;0.60;;
20393;SDS011;10356;50.544;9.642;2023-03-14T10:15:47;2.13;;;0.93;;
20393;SDS011;10356;50.544;9.642;2023-03-14T10:18:14;2.07;;;0.70;;
20393;SDS011;10356;50.544;9.642;2023-03-14T10:20:42;1.92;;;0.80;;
20393;SDS011;10356;50.544;9.642;2023-03-14T10:23:19;1.23;;;0.67;;
20393;SDS011;10356;50.544;9.642;2023-03-14T10:26:00;3.28;;;0.82;;
20393;SDS011;10356;50.544;9.642;2023-03-14T10:28:31;3.40;;;1.20;;
20393;SDS011;10356;50.544;9.642;2023-03-14T10:30:59;1.00;;;0.60;;
20393;SDS011;10356;50.544;9.642;2023-03-14T10:33:27;2.37;;;0.70;;
20393;SDS011;10356;50.544;9.642;2023-03-14T10:35:57;2.27;;;0.63;;
20393;SDS011;10356;50.544;9.642;2023-03-14T10:38:26;1.15;;;0.60;;
20393;SDS011;10356;50.544;9.642;2023-03-14T10:40:55;2.20;;;0.80;;
20393;SDS011;10356;50.544;9.642;2023-03-14T10:43:25;2.03;;;0.60;;
20393;SDS011;10356;50.544;9.642;2023-03-14T10:45:54;2.10;;;0.80;;
20393;SDS011;10356;50.544;9.642;2023-03-14T10:48:24;2.00;;;0.60;;
20393;SDS011;10356;50.544;9.642;2023-03-14T10:50:56;3.00;;;0.60;;
20393;SDS011;10356;50.544;9.642;2023-03-14T10:53:24;1.48;;;0.43;;
20393;SDS011;10356;50.544;9.642;2023-03-14T10:55:51;1.15;;;0.60;;
20393;SDS011;10356;50.544;9.642;2023-03-14T10:58:18;1.30;;;0.45;;
20393;SDS011;10356;50.544;9.642;2023-03-14T11:00:53;2.65;;;0.95;;
20393;SDS011;10356;50.544;9.642;2023-03-14T11:03:28;0.65;;;0.43;;
20393;SDS011;10356;50.544;9.642;2023-03-14T11:05:57;2.35;;;0.50;;
20393;SDS011;10356;50.544;9.642;2023-03-14T11:08:31;1.77;;;0.50;;
20393;SDS011;10356;50.544;9.642;2023-03-14T11:11:07;0.93;;;0.40;;
20393;SDS011;10356;50.544;9.642;2023-03-14T11:13:42;1.45;;;0.40;;
20393;SDS011;10356;50.544;9.642;2023-03-14T11:16:16;0.82;;;0.40;;
20393;SDS011;10356;50.544;9.642;2023-03-14T11:21:45;1.60;;;0.60;;
20393;SDS011;10356;50.544;9.642;2023-03-14T11:24:24;0.65;;;0.40;;
20393;SDS011;10356;50.544;9.642;2023-03-14T11:27:13;0.88;;;0.40;;
20393;SDS011;10356;50.544;9.642;2023-03-14T11:29:50;0.40;;;0.40;;
20393;SDS011;10356;50.544;9.642;2023-03-14T11:32:24;0.77;;;0.40;;
20393;SDS011;10356;50.544;9.642;2023-03-14T11:35:03;1.38;;;0.50;;
20393;SDS011;10356;50.544;9.642;2023-03-14T11:37:40;0.82;;;0.47;;
20393;SDS011;10356;50.544;9.642;2023-03-14T11:40:13;0.52;;;0.45;;
20393;SDS011;10356;50.544;9.642;2023-03-14T11:42:43;0.65;;;0.32;;
20393;SDS011;10356;50.544;9.642;2023-03-14T11:45:13;0.55;;;0.40;;
20393;SDS011;10356;50.544;9.642;2023-03-14T11:47:46;0.75;;;0.50;;
20393;SDS011;10356;50.544;9.642;2023-03-14T11:50:20;1.00;;;0.40;;
20393;SDS011;10356;50.544;9.642;2023-03-14T11:52:51;0.73;;;0.45;;
20393;SDS011;10356;50.544;9.642;2023-03-14T11:55:24;2.13;;;0.68;;
20393;SDS011;10356;50.544;9.642;2023-03-14T11:57:58;0.55;;;0.45;;
20393;SDS011;10356;50.544;9.642;2023-03-14T12:00:27;1.17;;;0.40;;
20393;SDS011;10356;50.544;9.642;2023-03-14T12:02:57;0.60;;;0.38;;
20393;SDS011;10356;50.544;9.642;2023-03-14T12:05:39;0.68;;;0.43;;
20393;SDS011;10356;50.544;9.642;2023-03-14T12:11:04;0.70;;;0.35;;
20393;SDS011;10356;50.544;9.642;2023-03-14T12:13:38;1.25;;;0.45;;
20393;SDS011;10356;50.544;9.642;2023-03-14T12:16:06;0.60;;;0.40;;
20393;SDS011;10356;50.544;9.642;2023-03-14T12:18:47;0.73;;;0.40;;
20393;SDS011;10356;50.544;9.642;2023-03-14T12:21:14;0.57;;;0.45;;
20393;SDS011;10356;50.544;9.642;2023-03-14T12:23:41;0.93;;;0.50;;
20393;SDS011;10356;50.544;9.642;2023-03-14T12:26:15;1.23;;;0.32;;
20393;SDS011;10356;50.544;9.642;2023-03-14T12:28:48;0.68;;;0.38;;
20393;SDS011;10356;50.544;9.642;2023-03-14T12:34:10;0.40;;;0.30;;
20393;SDS011;10356;50.544;9.642;2023-03-14T12:36:59;0.82;;;0.45;;
20393;SDS011;10356;50.544;9.642;2023-03-14T12:39:34;1.95;;;0.45;;
20393;SDS011;10356;50.544;9.642;2023-03-14T12:42:11;1.60;;;0.40;;
20393;SDS011;10356;50.544;9.642;2023-03-14T12:44:40;2.63;;;0.70;;
20393;SDS011;10356;50.544;9.642;2023-03-14T12:50:28;4.38;;;0.50;;
20393;SDS011;10356;50.544;9.642;2023-03-14T12:55:57;1.30;;;0.77;;
20393;SDS011;10356;50.544;9.642;2023-03-14T12:58:31;6.20;;;0.95;;
20393;SDS011;10356;50.544;9.642;2023-03-14T13:01:04;1.33;;;0.20;;
20393;SDS011;10356;50.544;9.642;2023-03-14T13:03:37;0.20;;;0.10;;
20393;SDS011;10356;50.544;9.642;2023-03-14T13:06:12;0.57;;;0.20;;
20393;SDS011;10356;50.544;9.642;2023-03-14T13:08:41;0.50;;;0.47;;
20393;SDS011;10356;50.544;9.642;2023-03-14T13:11:10;0.50;;;0.10;;
20393;SDS011;10356;50.544;9.642;2023-03-14T13:13:41;0.23;;;0.20;;
20393;SDS011;10356;50.544;9.642;2023-03-14T13:16:12;0.17;;;0.10;;
20393;SDS011;10356;50.544;9.642;2023-03-14T13:18:42;0.10;;;0.10;;
20393;SDS011;10356;50.544;9.642;2023-03-14T13:21:12;0.10;;;0.10;;
20393;SDS011;10356;50.544;9.642;2023-03-14T13:23:44;0.10;;;0.10;;
20393;SDS011;10356;50.544;9.642;2023-03-14T13:26:20;0.93;;;0.40;;
20393;SDS011;10356;50.544;9.642;2023-03-14T13:28:48;0.63;;;0.63;;
20393;SDS011;10356;50.544;9.642;2023-03-14T13:31:18;0.10;;;0.10;;
20393;SDS011;10356;50.544;9.642;2023-03-14T13:33:56;0.00;;;0.00;;
20393;SDS011;10356;50.544;9.642;2023-03-14T13:36:24;0.10;;;0.10;;
20393;SDS011;10356;50.544;9.642;2023-03-14T13:38:55;0.10;;;0.10;;
20393;SDS011;10356;50.544;9.642;2023-03-14T13:41:22;0.10;;;0.10;;
20393;SDS011;10356;50.544;9.642;2023-03-14T13:43:50;0.10;;;0.10;;
20393;SDS011;10356;50.544;9.642;2023-03-14T13:46:17;0.00;;;0.00;;
20393;SDS011;10356;50.544;9.642;2023-03-14T13:48:47;0.20;;;0.10;;
20393;SDS011;10356;50.544;9.642;2023-03-14T13:51:16;0.27;;;0.10;;
20393;SDS011;10356;50.544;9.642;2023-03-14T13:53:46;0.20;;;0.10;;
20393;SDS011;10356;50.544;9.642;2023-03-14T13:56:14;0.10;;;0.10;;
20393;SDS011;10356;50.544;9.642;2023-03-14T13:58:41;1.43;;;0.30;;
20393;SDS011;10356;50.544;9.642;2023-03-14T14:01:11;0.20;;;0.17;;
20393;SDS011;10356;50.544;9.642;2023-03-14T14:03:41;0.13;;;0.10;;
20393;SDS011;10356;50.544;9.642;2023-03-14T14:06:25;0.10;;;0.10;;
20393;SDS011;10356;50.544;9.642;2023-03-14T14:08:56;0.97;;;0.20;;
20393;SDS011;10356;50.544;9.642;2023-03-14T14:11:29;0.40;;;0.40;;
20393;SDS011;10356;50.544;9.642;2023-03-14T14:14:04;0.63;;;0.20;;
20393;SDS011;10356;50.544;9.642;2023-03-14T14:16:34;0.13;;;0.13;;
20393;SDS011;10356;50.544;9.642;2023-03-14T14:19:01;0.43;;;0.30;;
20393;SDS011;10356;50.544;9.642;2023-03-14T14:21:28;0.50;;;0.20;;
20393;SDS011;10356;50.544;9.642;2023-03-14T14:23:58;1.43;;;0.30;;
20393;SDS011;10356;50.544;9.642;2023-03-14T14:26:25;0.10;;;0.10;;
20393;SDS011;10356;50.544;9.642;2023-03-14T14:29:00;0.47;;;0.20;;
20393;SDS011;10356;50.544;9.642;2023-03-14T14:31:28;0.33;;;0.30;;
20393;SDS011;10356;50.544;9.642;2023-03-14T14:33:56;0.20;;;0.10;;
20393;SDS011;10356;50.544;9.642;2023-03-14T14:36:24;0.10;;;0.10;;
20393;SDS011;10356;50.544;9.642;2023-03-14T14:38:56;0.20;;;0.20;;
20393;SDS011;10356;50.544;9.642;2023-03-14T14:41:26;0.23;;;0.20;;
20393;SDS011;10356;50.544;9.642;2023-03-14T14:43:55;0.20;;;0.17;;
20393;SDS011;10356;50.544;9.642;2023-03-14T14:46:22;1.53;;;0.30;;
20393;SDS011;10356;50.544;9.642;2023-03-14T14:48:54;0.20;;;0.10;;
20393;SDS011;10356;50.544;9.642;2023-03-14T14:51:23;0.33;;;0.10;;
20393;SDS011;10356;50.544;9.642;2023-03-14T14:54:09;1.13;;;0.20;;
20393;SDS011;10356;50.544;9.642;2023-03-14T14:56:38;0.40;;;0.30;;
20393;SDS011;10356;50.544;9.642;2023-03-14T14:59:06;0.20;;;0.10;;
20393;SDS011;10356;50.544;9.642;2023-03-14T15:01:45;0.77;;;0.20;;
20393;SDS011;10356;50.544;9.642;2023-03-14T15:04:13;0.10;;;0.10;;
20393;SDS011;10356;50.544;9.642;2023-03-14T15:06:41;0.30;;;0.17;;
20393;SDS011;10356;50.544;9.642;2023-03-14T15:09:11;0.10;;;0.10;;
20393;SDS011;10356;50.544;9.642;2023-03-14T15:11:38;0.13;;;0.10;;
20393;SDS011;10356;50.544;9.642;2023-03-14T15:14:04;0.10;;;0.10;;